New Orleans Nas Jrb,Alvin Callender Field, Airport New Orleans US
ICAO: KNBG
IATA: NBG
Category: Medium
Scheduled Services: No

Elevation: 2 ft
TransAlt. 18000 ft.

Airport Communications:
APP/DEP:123.85
ATIS:27.62
NAVY NEW ORLEANS GND:121.6
USCG NEW ORLEANS AIR:38.18
BASE OPS:37.915
PMSV METRO:26.58
NAVY NEW ORLEANS TWR:123.8

KNBG Zoom In..

If Map Doesn't Load, Click Here

Runways:

(A) RW 04 length 10000 ft width 200 ft
ILS 109.50 / hdg 44

(B) RW 14 length 6000 ft width 200 ft
---- / hdg 141

(C) RW 22 length 10000 ft width 200 ft
---- / hdg 224

(D) RW 32 length 6000 ft width 200 ft
---- / hdg 321

Location; KNBG
Day. 24 / Time. 04.55 Zulu
* Altimeter: 29.95
* Temperature: 26° c. 78.8°f.
* Wind from: 150° Speed 03 kn.
Dewpoint: 26° c.
Visibility: 10 Statute Miles.
Clouds: Clear (automated report).
Conditions: Light Rain.

KNBG 240455Z AUTO 15003KT 10SM -RA CLR 26/26 A2995 RMK AO2 SLP140 P0000 T02610256 $


Wind From 150°
Speed 03 kn.

 
 
jpsmedia.com for Web Design worldairports.se 2018   terms of use